Time;durP1;ratioP1;P1;durP2;ratioP2;P2;SDS_P1;SDS_P2;PMS_P1;PMS_P2;Temp;Humidity;BMP_temperature;BMP_pressure;BME280_temperature;BME280_humidity;BME280_pressure;Samples;Min_cycle;Max_cycle;Signal;HPM_P1;HPM_P2
2024/04/02 00:00:43;;;;;;;3.13;1.23;;;7.80;99.90;;;;;;6132870;23;20363;-77
2024/04/02 00:03:10;;;;;;;2.20;0.97;;;7.70;99.90;;;;;;6159409;23;20394;-76
2024/04/02 00:05:36;;;;;;;2.83;1.20;;;7.70;99.90;;;;;;6158980;23;20393;-77
2024/04/02 00:08:03;;;;;;;2.00;1.30;;;7.70;99.90;;;;;;6159314;23;20684;-80
2024/04/02 00:10:29;;;;;;;2.83;1.50;;;7.70;99.90;;;;;;6133127;23;20425;-78
2024/04/02 00:12:55;;;;;;;2.70;1.03;;;7.70;99.90;;;;;;6133414;23;20363;-79
2024/04/02 00:15:21;;;;;;;2.03;1.20;;;7.80;99.90;;;;;;6132976;23;20367;-76
2024/04/02 00:17:46;;;;;;;1.83;1.00;;;7.80;99.90;;;;;;6159039;23;20155;-76
2024/04/02 00:20:12;;;;;;;2.63;1.23;;;7.90;99.90;;;;;;6158464;23;20205;-78
2024/04/02 00:22:40;;;;;;;2.80;1.23;;;7.90;99.90;;;;;;6159135;23;20139;-77
2024/04/02 00:25:06;;;;;;;1.93;0.87;;;7.90;99.90;;;;;;6132549;23;20143;-77
2024/04/02 00:27:31;;;;;;;3.00;1.13;;;7.90;99.90;;;;;;6132715;23;20413;-76
2024/04/02 00:32:48;;;;;;;1.80;1.20;;;7.80;99.90;;;;;;6193865;23;20196;-75
2024/04/02 00:35:17;;;;;;;2.40;1.20;;;7.70;99.90;;;;;;6213250;23;20405;-75
2024/04/02 00:37:47;;;;;;;2.10;1.03;;;7.70;99.90;;;;;;6175785;22;20436;-75
2024/04/02 00:40:13;;;;;;;4.80;1.30;;;7.60;99.90;;;;;;6223693;22;20360;-77
2024/04/02 00:42:48;;;;;;;1.50;1.10;;;7.60;99.90;;;;;;6249577;22;20357;-77
2024/04/02 00:45:20;;;;;;;3.93;1.30;;;7.60;99.90;;;;;;6249363;22;20372;-76
2024/04/02 00:47:51;;;;;;;2.47;1.00;;;7.60;99.90;;;;;;6188078;23;20397;-76
2024/04/02 00:50:30;;;;;;;2.37;1.23;;;7.50;99.90;;;;;;6189980;23;20429;-75
2024/04/02 00:52:59;;;;;;;3.63;1.53;;;7.50;99.90;;;;;;6162368;23;20445;-76
2024/04/02 00:55:27;;;;;;;1.40;0.90;;;7.50;99.90;;;;;;6212028;23;20444;-76
2024/04/02 00:57:57;;;;;;;2.03;1.20;;;7.40;99.90;;;;;;6187155;23;20374;-76
2024/04/02 01:00:25;;;;;;;1.40;1.00;;;7.40;99.90;;;;;;6098804;23;20384;-77
2024/04/02 01:02:51;;;;;;;2.17;1.10;;;7.30;99.90;;;;;;6105729;23;20385;-77
2024/04/02 01:05:17;;;;;;;2.80;1.10;;;7.20;99.90;;;;;;6080814;23;20388;-75
2024/04/02 01:07:44;;;;;;;1.87;1.10;;;7.20;99.90;;;;;;6072886;23;20180;-77
2024/04/02 01:10:10;;;;;;;2.57;1.30;;;7.20;99.90;;;;;;6097957;23;20418;-76
2024/04/02 01:13:12;;;;;;;2.27;1.20;;;7.10;99.90;;;;;;6100460;23;20365;-78
2024/04/02 01:16:04;;;;;;;3.47;1.53;;;7.10;99.90;;;;;;6086075;23;20413;-77
2024/04/02 01:18:30;;;;;;;3.37;1.47;;;7.00;99.90;;;;;;6120865;23;20379;-76
2024/04/02 01:20:57;;;;;;;2.80;1.20;;;7.00;99.90;;;;;;6177747;23;20367;-74
2024/04/02 01:23:26;;;;;;;2.90;1.27;;;6.90;99.90;;;;;;6107389;23;20159;-76
2024/04/02 01:25:54;;;;;;;2.40;1.23;;;6.90;99.90;;;;;;6146021;23;20451;-78
2024/04/02 01:28:19;;;;;;;3.13;1.40;;;6.90;99.90;;;;;;6125655;23;20372;-78
2024/04/02 01:30:45;;;;;;;5.73;1.40;;;6.90;99.90;;;;;;6125110;23;20235;-76
2024/04/02 01:33:10;;;;;;;4.20;1.10;;;6.90;99.90;;;;;;6126886;23;20399;-76
2024/04/02 01:35:36;;;;;;;2.13;1.23;;;6.90;99.90;;;;;;6104009;23;20152;-77
2024/04/02 01:38:01;;;;;;;2.40;1.50;;;6.90;99.90;;;;;;6141280;23;20557;-76
2024/04/02 01:40:27;;;;;;;1.73;0.90;;;7.00;99.90;;;;;;6127391;23;20151;-74
2024/04/02 01:42:53;;;;;;;2.13;1.23;;;6.90;99.90;;;;;;6127461;23;20547;-76
2024/04/02 01:45:18;;;;;;;2.87;1.03;;;6.90;99.90;;;;;;6126195;23;20204;-77
2024/04/02 01:47:45;;;;;;;1.43;1.00;;;6.90;99.90;;;;;;6126169;23;20561;-77
2024/04/02 01:50:13;;;;;;;3.47;1.10;;;7.00;99.90;;;;;;6146375;23;20182;-78
2024/04/02 01:52:39;;;;;;;1.87;1.00;;;7.00;99.90;;;;;;6180711;23;20386;-77
2024/04/02 01:55:05;;;;;;;2.07;1.20;;;7.00;99.90;;;;;;6196962;23;20410;-76
2024/04/02 01:57:31;;;;;;;1.40;1.10;;;7.00;99.90;;;;;;6214667;23;20219;-76
2024/04/02 01:59:56;;;;;;;2.53;1.10;;;7.10;99.90;;;;;;6224865;23;20201;-76
2024/04/02 02:02:22;;;;;;;1.80;1.23;;;7.10;99.90;;;;;;6218742;23;20186;-77
2024/04/02 02:04:47;;;;;;;2.03;0.90;;;7.10;99.90;;;;;;6242189;23;20145;-78
2024/04/02 02:07:13;;;;;;;1.60;1.00;;;7.20;99.90;;;;;;6215888;23;20174;-76
2024/04/02 02:09:38;;;;;;;3.20;1.10;;;7.20;99.90;;;;;;6216205;23;20145;-77
2024/04/02 02:12:04;;;;;;;1.90;1.20;;;7.30;99.90;;;;;;6216417;23;20157;-76
2024/04/02 02:14:30;;;;;;;2.00;0.93;;;7.30;99.90;;;;;;6216484;23;20421;-78
2024/04/02 02:16:55;;;;;;;3.80;0.90;;;7.40;99.90;;;;;;6215903;23;20173;-75
2024/04/02 02:19:21;;;;;;;1.63;1.27;;;7.40;99.90;;;;;;6240718;23;20484;-76
2024/04/02 02:21:47;;;;;;;2.67;1.50;;;7.50;99.90;;;;;;6217206;23;20134;-76
2024/04/02 02:24:13;;;;;;;2.33;1.40;;;7.50;99.90;;;;;;6216648;23;20149;-76
2024/04/02 02:26:38;;;;;;;2.50;1.30;;;7.50;99.90;;;;;;6216861;23;20380;-75
2024/04/02 02:29:04;;;;;;;5.43;1.80;;;7.50;99.90;;;;;;6241554;23;20204;-75
2024/04/02 02:31:30;;;;;;;2.43;1.23;;;7.50;99.90;;;;;;6217384;23;20500;-77
2024/04/02 02:33:55;;;;;;;3.03;1.47;;;7.60;99.90;;;;;;6215703;23;20453;-76
2024/04/02 02:36:21;;;;;;;2.43;1.20;;;7.60;99.90;;;;;;6217167;23;20182;-76
2024/04/02 02:38:46;;;;;;;3.27;1.30;;;7.60;99.90;;;;;;6246584;23;20200;-76
2024/04/02 02:41:12;;;;;;;3.10;1.60;;;7.60;99.90;;;;;;6220381;23;20499;-76
2024/04/02 02:43:37;;;;;;;2.20;1.20;;;7.60;99.90;;;;;;6247367;23;20130;-77
2024/04/02 02:46:03;;;;;;;6.23;1.20;;;7.60;99.90;;;;;;6246242;23;20554;-76
2024/04/02 02:48:29;;;;;;;2.07;1.30;;;7.60;99.90;;;;;;6221881;23;20138;-76
2024/04/02 02:50:54;;;;;;;3.33;1.67;;;7.50;99.90;;;;;;6248835;23;20153;-76
2024/04/02 02:53:20;;;;;;;4.77;1.53;;;7.60;99.90;;;;;;6249605;23;20184;-77
2024/04/02 02:55:53;;;;;;;2.57;1.50;;;7.60;99.90;;;;;;6219909;23;20219;-78
2024/04/02 02:58:19;;;;;;;1.80;1.13;;;7.60;99.90;;;;;;6248690;23;20141;-76
2024/04/02 03:00:45;;;;;;;2.37;1.50;;;7.60;99.90;;;;;;6248286;23;20371;-77
2024/04/02 03:03:11;;;;;;;2.77;1.20;;;7.60;99.90;;;;;;6249515;23;20364;-77
2024/04/02 03:05:37;;;;;;;2.77;1.40;;;7.60;99.90;;;;;;6248877;23;20133;-76
2024/04/02 03:08:02;;;;;;;3.20;1.43;;;7.60;99.90;;;;;;6249571;23;20618;-76
2024/04/02 03:10:33;;;;;;;2.17;1.20;;;7.60;99.90;;;;;;6263190;23;20152;-75
2024/04/02 03:13:12;;;;;;;1.60;1.20;;;7.60;99.90;;;;;;6203931;23;20159;-74
2024/04/02 03:15:40;;;;;;;3.53;1.53;;;7.60;99.90;;;;;;6217321;23;20521;-76
2024/04/02 03:18:07;;;;;;;3.10;1.60;;;7.60;99.90;;;;;;6192485;23;20380;-76
2024/04/02 03:20:38;;;;;;;5.00;1.60;;;7.60;99.90;;;;;;6138800;23;20385;-76
2024/04/02 03:23:05;;;;;;;1.80;1.43;;;7.70;99.90;;;;;;6186617;23;20377;-76
2024/04/02 03:25:32;;;;;;;2.70;1.50;;;7.70;99.90;;;;;;6187410;23;20393;-76
2024/04/02 03:27:59;;;;;;;4.47;1.23;;;7.80;99.90;;;;;;6187493;23;20464;-76
2024/04/02 03:30:40;;;;;;;2.27;1.33;;;7.90;99.90;;;;;;6189889;23;20404;-77
2024/04/02 03:33:06;;;;;;;2.53;1.30;;;8.00;99.90;;;;;;6213628;23;20423;-77
2024/04/02 03:35:39;;;;;;;1.87;1.13;;;8.10;99.90;;;;;;6181494;23;20365;-78
2024/04/02 03:38:08;;;;;;;2.50;1.30;;;8.20;99.90;;;;;;6152558;23;20433;-77
2024/04/02 03:40:42;;;;;;;2.87;1.40;;;8.30;99.90;;;;;;6163269;23;20426;-77
2024/04/02 03:43:11;;;;;;;2.80;1.20;;;8.30;99.90;;;;;;6128357;23;20418;-76
2024/04/02 03:45:39;;;;;;;2.00;1.30;;;8.40;99.90;;;;;;6093848;23;20396;-77
2024/04/02 03:48:14;;;;;;;3.67;2.10;;;8.40;99.90;;;;;;6121124;23;20369;-77
2024/04/02 03:50:50;;;;;;;1.97;1.60;;;8.50;99.90;;;;;;6094096;23;20378;-77
2024/04/02 03:53:19;;;;;;;2.30;1.37;;;8.50;99.90;;;;;;6094701;23;20443;-76
2024/04/02 03:55:45;;;;;;;5.53;1.80;;;8.60;99.90;;;;;;6093014;23;20429;-76
2024/04/02 03:58:14;;;;;;;2.47;1.27;;;8.60;99.90;;;;;;6069480;23;20459;-77
2024/04/02 04:01:14;;;;;;;1.43;1.07;;;8.70;99.90;;;;;;6018701;23;20389;-76
2024/04/02 04:04:12;;;;;;;3.50;1.00;;;8.70;99.90;;;;;;6049784;23;20373;-77
2024/04/02 04:06:49;;;;;;;5.17;1.97;;;8.70;99.90;;;;;;6094827;23;20405;-79
2024/04/02 04:09:34;;;;;;;2.93;1.37;;;8.70;99.90;;;;;;6091276;23;20374;-79
2024/04/02 04:12:32;;;;;;;2.30;1.10;;;8.80;99.90;;;;;;6094981;23;20369;-77
2024/04/02 04:15:25;;;;;;;5.10;1.40;;;8.80;99.90;;;;;;6047437;23;20424;-80
2024/04/02 04:21:24;;;;;;;2.33;1.20;;;8.80;99.90;;;;;;6188266;23;20446;-77
2024/04/02 04:23:50;;;;;;;2.40;1.13;;;8.90;99.90;;;;;;6122836;23;20394;-76
2024/04/02 04:26:16;;;;;;;2.00;1.10;;;8.90;99.90;;;;;;6159632;23;20484;-76
2024/04/02 04:28:42;;;;;;;3.30;1.40;;;8.90;99.90;;;;;;6158504;23;20136;-77
2024/04/02 04:31:09;;;;;;;4.20;1.43;;;9.00;99.90;;;;;;6158498;23;20147;-76
2024/04/02 04:33:34;;;;;;;4.07;1.63;;;9.00;99.90;;;;;;6159042;23;20170;-76
2024/04/02 04:36:00;;;;;;;7.70;2.00;;;9.00;99.90;;;;;;6159989;23;20378;-76
2024/04/02 04:38:29;;;;;;;2.60;1.67;;;9.00;99.90;;;;;;6159154;23;20470;-77
2024/04/02 04:40:55;;;;;;;3.07;1.70;;;8.90;99.90;;;;;;6161554;23;20132;-76
2024/04/02 04:43:20;;;;;;;2.50;1.33;;;8.70;99.90;;;;;;6164626;23;20366;-77
2024/04/02 04:45:50;;;;;;;3.33;1.13;;;8.60;99.90;;;;;;6165646;23;20139;-77
2024/04/02 04:48:16;;;;;;;3.43;1.50;;;8.50;99.90;;;;;;6134562;23;20151;-77
2024/04/02 04:50:41;;;;;;;3.70;1.67;;;8.50;99.90;;;;;;6160401;23;20811;-78
2024/04/02 04:53:07;;;;;;;7.67;1.33;;;8.50;99.90;;;;;;6134088;23;20143;-77
2024/04/02 04:55:33;;;;;;;3.33;1.37;;;8.50;99.90;;;;;;6159700;23;20520;-78
2024/04/02 04:57:59;;;;;;;1.80;1.47;;;8.50;99.90;;;;;;6160572;23;20402;-77
2024/04/02 05:00:28;;;;;;;2.80;1.87;;;8.50;99.90;;;;;;6136556;23;20370;-75
2024/04/02 05:02:54;;;;;;;5.73;2.60;;;8.50;99.90;;;;;;6129198;23;20163;-75
2024/04/02 05:05:20;;;;;;;2.90;1.60;;;8.50;99.90;;;;;;6130446;23;20379;-77
2024/04/02 05:08:14;;;;;;;4.10;1.77;;;8.60;99.90;;;;;;6130324;23;20655;-77
2024/04/02 05:10:40;;;;;;;4.30;1.63;;;8.60;99.90;;;;;;6131192;23;20147;-77
2024/04/02 05:13:08;;;;;;;3.90;2.53;;;8.70;99.90;;;;;;6131050;23;20383;-76
2024/04/02 05:15:34;;;;;;;3.00;2.07;;;8.70;99.90;;;;;;6156213;23;20458;-77
2024/04/02 05:18:01;;;;;;;6.63;1.90;;;8.80;99.90;;;;;;6149015;23;20447;-76
2024/04/02 05:20:27;;;;;;;3.70;1.80;;;8.80;99.90;;;;;;6076288;23;20391;-75
2024/04/02 05:22:54;;;;;;;5.93;2.00;;;8.90;99.90;;;;;;6149216;23;20403;-76
2024/04/02 05:25:22;;;;;;;4.03;2.17;;;8.90;99.90;;;;;;6125627;23;20356;-77
2024/04/02 05:27:49;;;;;;;3.20;2.50;;;9.00;99.90;;;;;;6150419;23;20395;-76
2024/04/02 05:30:15;;;;;;;6.90;3.27;;;9.00;99.90;;;;;;6076846;23;20399;-76
2024/04/02 05:32:41;;;;;;;5.13;2.13;;;9.10;99.90;;;;;;6101752;23;20403;-76
2024/04/02 05:35:14;;;;;;;3.40;2.00;;;9.10;99.90;;;;;;6150006;23;20387;-76
2024/04/02 05:37:41;;;;;;;3.97;2.57;;;9.20;99.90;;;;;;6102299;23;20443;-76
2024/04/02 05:43:16;;;;;;;4.83;2.13;;;9.30;99.90;;;;;;6157140;23;20449;-76
2024/04/02 06:10:07;;;;;;;4.60;1.70;;;10.00;99.90;;;;;;6142236;23;20445;-74
2024/04/02 06:13:23;;;;;;;6.07;2.00;;;10.00;99.90;;;;;;6242924;23;20376;-78
2024/04/02 15:34:53;;;;;;;2.40;1.33;;;14.00;99.90;;;;;;6207264;23;20456;-80
2024/04/02 15:37:19;;;;;;;5.70;2.47;;;13.90;99.90;;;;;;6183778;23;20402;-81
2024/04/02 15:39:45;;;;;;;7.90;2.40;;;13.90;99.90;;;;;;6158631;23;20189;-80
2024/04/02 15:42:11;;;;;;;3.87;2.40;;;13.90;99.90;;;;;;6184062;23;20382;-79
2024/04/02 15:44:38;;;;;;;2.80;1.70;;;13.90;99.90;;;;;;6147770;23;20156;-80
2024/04/02 15:47:04;;;;;;;5.23;1.77;;;13.90;99.90;;;;;;6126439;23;20410;-79
2024/04/02 15:49:30;;;;;;;2.83;1.53;;;13.90;99.90;;;;;;6124641;23;20402;-79
2024/04/02 15:51:58;;;;;;;4.67;1.67;;;13.90;99.90;;;;;;6148980;23;20371;-81
2024/04/02 15:54:24;;;;;;;6.13;2.10;;;13.90;99.90;;;;;;6124913;23;20416;-79
2024/04/02 15:56:52;;;;;;;5.67;2.30;;;13.90;99.90;;;;;;6124091;23;20446;-79
2024/04/02 15:59:39;;;;;;;5.47;1.90;;;13.90;98.80;;;;;;6126889;23;20387;-80
2024/04/02 16:02:11;;;;;;;4.20;1.93;;;13.90;98.50;;;;;;6128267;23;20406;-80
2024/04/02 16:04:46;;;;;;;3.07;1.53;;;14.00;97.00;;;;;;6081767;23;20397;-78
2024/04/02 16:07:12;;;;;;;5.10;1.90;;;14.00;96.20;;;;;;6124818;23;20426;-80
2024/04/02 16:09:42;;;;;;;4.83;2.30;;;14.00;95.60;;;;;;6125686;23;20387;-80
2024/04/02 16:12:13;;;;;;;5.77;2.20;;;13.90;95.20;;;;;;6126438;23;20392;-81
2024/04/02 16:14:41;;;;;;;4.73;1.70;;;13.80;94.60;;;;;;6158691;23;20437;-80
2024/04/02 16:17:11;;;;;;;4.90;1.73;;;13.70;94.50;;;;;;6185036;23;20400;-80
2024/04/02 16:19:54;;;;;;;6.50;1.67;;;13.60;94.50;;;;;;6184960;23;20374;-80
2024/04/02 16:22:21;;;;;;;7.87;2.23;;;13.60;94.00;;;;;;6208608;23;20384;-80
2024/04/02 16:24:49;;;;;;;6.03;1.77;;;13.50;93.90;;;;;;6159238;23;20370;-80
2024/04/02 16:27:15;;;;;;;8.07;2.60;;;13.30;93.80;;;;;;6183381;23;20143;-79
2024/04/02 16:29:43;;;;;;;7.80;2.30;;;13.10;95.40;;;;;;6159559;23;20702;-80
2024/04/02 16:32:11;;;;;;;11.33;2.97;;;12.70;98.10;;;;;;6208253;23;20366;-79
2024/04/02 16:34:40;;;;;;;5.60;2.37;;;12.30;99.90;;;;;;6160441;23;20472;-80
2024/04/02 16:37:08;;;;;;;6.40;2.37;;;12.20;99.90;;;;;;6184542;23;20402;-78
2024/04/02 16:39:36;;;;;;;7.60;2.30;;;12.10;99.90;;;;;;6187392;23;20366;-78
2024/04/02 16:42:08;;;;;;;3.83;2.37;;;12.10;99.90;;;;;;6185858;23;20428;-79
2024/04/02 16:44:34;;;;;;;7.17;2.20;;;12.20;99.90;;;;;;6185203;23;20400;-79
2024/04/02 16:46:59;;;;;;;6.17;2.67;;;12.30;99.90;;;;;;6129075;23;20473;-79
2024/04/02 16:49:25;;;;;;;10.00;3.10;;;12.40;99.90;;;;;;6125195;23;20170;-78
2024/04/02 16:51:51;;;;;;;5.23;3.23;;;12.40;99.90;;;;;;6179687;23;20456;-79
2024/04/02 16:54:17;;;;;;;5.13;2.70;;;12.50;99.90;;;;;;6155500;23;20197;-78
2024/04/02 16:56:45;;;;;;;3.90;2.20;;;12.60;99.90;;;;;;6154103;23;20403;-79
2024/04/02 16:59:12;;;;;;;4.80;1.90;;;12.60;99.90;;;;;;6152670;23;20400;-77
2024/04/02 17:01:39;;;;;;;5.27;1.87;;;12.60;99.90;;;;;;6152260;23;20377;-79
2024/04/02 17:04:05;;;;;;;7.90;2.67;;;12.60;99.90;;;;;;6152493;23;20382;-80
2024/04/02 17:06:35;;;;;;;3.30;1.90;;;12.60;99.90;;;;;;6129196;23;20540;-77
2024/04/02 17:09:01;;;;;;;6.50;2.10;;;12.60;99.90;;;;;;6175856;23;20351;-82
2024/04/02 17:11:27;;;;;;;5.03;2.13;;;12.60;99.90;;;;;;6152483;23;20363;-80
2024/04/02 17:14:00;;;;;;;6.13;2.30;;;12.60;99.90;;;;;;6152976;23;20171;-78
2024/04/02 17:16:30;;;;;;;10.03;3.00;;;12.60;99.90;;;;;;6126569;23;20402;-80
2024/04/02 17:18:59;;;;;;;7.00;2.60;;;12.70;99.90;;;;;;6157899;23;20384;-79
2024/04/02 17:21:27;;;;;;;4.30;2.10;;;12.70;99.90;;;;;;6209309;23;20398;-79
2024/04/02 17:23:54;;;;;;;3.90;1.87;;;12.60;99.90;;;;;;6181339;23;20351;-78
2024/04/02 17:26:40;;;;;;;4.70;1.97;;;12.60;99.90;;;;;;6156957;23;20401;-80
2024/04/02 17:29:07;;;;;;;2.93;1.70;;;12.60;99.90;;;;;;6184047;23;20362;-79
2024/04/02 17:31:33;;;;;;;3.57;1.50;;;12.70;99.90;;;;;;6206299;23;20377;-77
2024/04/02 17:33:59;;;;;;;4.40;1.80;;;12.70;99.90;;;;;;6157237;23;20463;-80
2024/04/02 17:36:25;;;;;;;5.07;2.20;;;12.70;99.90;;;;;;6183092;23;20389;-78
2024/04/02 17:38:51;;;;;;;4.53;1.50;;;12.70;99.90;;;;;;6207326;23;20413;-80
2024/04/02 17:41:17;;;;;;;7.50;2.43;;;12.70;99.90;;;;;;6181779;23;20135;-79
2024/04/02 17:43:44;;;;;;;4.73;1.97;;;12.70;99.90;;;;;;6144251;23;20160;-79
2024/04/02 17:46:12;;;;;;;3.53;1.60;;;12.70;99.90;;;;;;6145522;23;20408;-79
2024/04/02 17:48:38;;;;;;;5.23;1.47;;;12.60;99.90;;;;;;6144835;23;20427;-80
2024/04/02 17:51:06;;;;;;;3.23;1.73;;;12.60;99.70;;;;;;6147092;23;20372;-81
2024/04/02 17:53:33;;;;;;;5.50;1.90;;;12.60;98.90;;;;;;6144522;23;20462;-80
2024/04/02 17:58:55;;;;;;;4.43;2.00;;;12.50;97.90;;;;;;6207095;23;20434;-78
2024/04/02 18:01:21;;;;;;;7.37;2.10;;;12.50;97.70;;;;;;6183929;23;20423;-77
2024/04/02 18:03:53;;;;;;;3.10;1.80;;;12.50;97.50;;;;;;6158378;23;20382;-82
2024/04/02 18:06:20;;;;;;;3.47;1.63;;;12.40;97.50;;;;;;6184646;23;20381;-79
2024/04/02 18:08:50;;;;;;;3.00;1.47;;;12.40;97.30;;;;;;6184403;23;20386;-78
2024/04/02 18:11:36;;;;;;;2.60;1.60;;;12.30;97.20;;;;;;6207636;23;20383;-79
2024/04/02 18:14:02;;;;;;;4.83;2.07;;;12.30;97.30;;;;;;6182009;23;20694;-78
2024/04/02 18:16:40;;;;;;;6.83;2.13;;;12.30;97.00;;;;;;6182694;23;20449;-80
2024/04/02 18:19:25;;;;;;;2.90;1.40;;;12.30;96.90;;;;;;6180730;23;20401;-79
2024/04/02 18:21:51;;;;;;;7.37;2.80;;;12.30;96.60;;;;;;6157979;23;20460;-79
2024/04/02 18:24:18;;;;;;;4.30;2.50;;;12.30;96.10;;;;;;6157312;23;20143;-80
2024/04/02 18:26:43;;;;;;;4.63;2.20;;;12.30;96.10;;;;;;6182274;23;20162;-77
2024/04/02 18:29:18;;;;;;;7.17;2.90;;;12.30;95.80;;;;;;6182237;23;20369;-78
2024/04/02 18:31:48;;;;;;;7.10;2.50;;;12.30;95.40;;;;;;6184646;23;20160;-80
2024/04/02 18:34:15;;;;;;;7.63;2.50;;;12.30;95.40;;;;;;6186151;23;20423;-76
2024/04/02 18:36:41;;;;;;;4.07;1.97;;;12.30;95.30;;;;;;6182457;23;20405;-77
2024/04/02 18:39:17;;;;;;;3.20;1.63;;;12.30;95.20;;;;;;6158494;23;20850;-79
2024/04/02 18:41:44;;;;;;;6.57;1.90;;;12.30;95.00;;;;;;6156624;23;20210;-79
2024/04/02 18:44:09;;;;;;;6.03;2.43;;;12.20;94.80;;;;;;6183800;23;20396;-80
2024/04/02 18:46:37;;;;;;;5.50;2.57;;;12.20;94.50;;;;;;6187196;23;20389;-79
2024/04/02 18:49:03;;;;;;;5.80;2.17;;;12.30;94.30;;;;;;6162688;23;20139;-78
2024/04/02 18:51:30;;;;;;;4.10;2.70;;;12.30;93.70;;;;;;6184893;23;20355;-78
2024/04/02 18:53:55;;;;;;;5.93;2.50;;;12.30;93.60;;;;;;6159717;23;20428;-81
2024/04/02 18:56:36;;;;;;;7.00;2.93;;;12.30;93.40;;;;;;6210741;23;20162;-80
2024/04/02 18:59:04;;;;;;;5.50;2.63;;;12.30;93.30;;;;;;6127607;23;20220;-79
2024/04/02 19:01:32;;;;;;;4.50;1.70;;;12.30;93.30;;;;;;6180210;23;20358;-79
2024/04/02 19:03:57;;;;;;;3.43;1.97;;;12.20;93.10;;;;;;6131154;23;20406;-80
2024/04/02 19:06:23;;;;;;;8.80;2.53;;;12.20;92.80;;;;;;6152679;23;20403;-78
2024/04/02 19:08:51;;;;;;;6.40;1.80;;;12.20;92.60;;;;;;6129069;23;20452;-79
2024/04/02 19:11:16;;;;;;;4.40;1.87;;;12.20;92.50;;;;;;6131162;23;20385;-77
2024/04/02 19:13:42;;;;;;;4.17;2.07;;;12.20;92.40;;;;;;6178764;23;20402;-80
2024/04/02 19:16:11;;;;;;;4.10;2.20;;;12.20;92.30;;;;;;6130654;23;20144;-78
2024/04/02 19:18:38;;;;;;;6.40;2.70;;;12.20;92.10;;;;;;6153639;23;20172;-80
2024/04/02 19:21:05;;;;;;;7.03;2.20;;;12.20;91.60;;;;;;6155403;23;20434;-79
2024/04/02 19:23:52;;;;;;;9.23;2.20;;;12.10;91.50;;;;;;6182510;23;20459;-78
2024/04/02 19:26:20;;;;;;;4.40;1.70;;;12.00;91.50;;;;;;6126049;23;20390;-78
2024/04/02 19:28:47;;;;;;;7.20;2.73;;;11.90;91.50;;;;;;6100699;23;20430;-81
2024/04/02 19:31:18;;;;;;;3.60;2.00;;;11.80;91.50;;;;;;6101035;23;20388;-78
2024/04/02 19:33:45;;;;;;;6.87;2.17;;;11.70;91.60;;;;;;6123583;23;20497;-78
2024/04/02 19:36:15;;;;;;;5.40;2.33;;;11.60;91.80;;;;;;6129039;23;20438;-79
2024/04/02 19:38:51;;;;;;;5.43;1.83;;;11.50;92.30;;;;;;6084391;23;20402;-76
2024/04/02 19:41:17;;;;;;;4.67;2.40;;;11.40;92.10;;;;;;6147580;23;20380;-78
2024/04/02 19:43:42;;;;;;;5.60;2.43;;;11.30;92.20;;;;;;6147328;23;20370;-75
2024/04/02 19:46:09;;;;;;;8.93;2.93;;;11.20;92.50;;;;;;6123916;23;20182;-78
2024/04/02 19:48:35;;;;;;;5.90;2.03;;;11.10;92.80;;;;;;6151228;23;20139;-76
2024/04/02 19:51:03;;;;;;;3.60;2.10;;;11.00;93.40;;;;;;6121921;23;20512;-77
2024/04/02 19:53:40;;;;;;;4.50;2.53;;;11.00;93.40;;;;;;6121651;23;20374;-78
2024/04/02 19:56:12;;;;;;;5.50;3.10;;;10.90;93.60;;;;;;6147593;23;20496;-80
2024/04/02 19:58:39;;;;;;;7.47;2.57;;;10.80;93.80;;;;;;6174299;23;20425;-78
2024/04/02 20:01:24;;;;;;;4.30;2.73;;;10.80;94.00;;;;;;6158021;23;20373;-78
2024/04/02 20:03:53;;;;;;;5.83;2.53;;;10.80;94.10;;;;;;6155760;23;20384;-78
2024/04/02 20:06:20;;;;;;;5.37;2.57;;;10.80;94.30;;;;;;6157902;23;20842;-77
2024/04/02 20:08:46;;;;;;;7.47;2.30;;;10.70;94.30;;;;;;6146485;23;20389;-76
2024/04/02 20:11:12;;;;;;;6.90;2.87;;;10.80;94.40;;;;;;6121136;23;20376;-78
2024/04/02 20:13:38;;;;;;;7.87;2.70;;;10.80;94.50;;;;;;6143004;23;20404;-78
2024/04/02 20:16:05;;;;;;;5.53;2.27;;;10.90;94.50;;;;;;6085573;23;20395;-79
2024/04/02 20:18:32;;;;;;;9.07;3.03;;;11.00;94.50;;;;;;6082361;23;20674;-76
2024/04/02 20:21:04;;;;;;;6.60;3.37;;;11.10;94.30;;;;;;6082955;23;20411;-76
2024/04/02 20:23:30;;;;;;;5.80;2.17;;;11.10;94.20;;;;;;6087141;23;20370;-76
2024/04/02 20:25:56;;;;;;;10.63;3.10;;;11.20;94.10;;;;;;6061600;23;20387;-77
2024/04/02 20:28:23;;;;;;;7.73;2.97;;;11.30;93.60;;;;;;6061232;23;20484;-77
2024/04/02 20:30:53;;;;;;;4.50;2.40;;;11.40;93.30;;;;;;6062109;23;20378;-78
2024/04/02 20:33:23;;;;;;;6.53;2.80;;;11.40;93.00;;;;;;6085122;23;20380;-76
2024/04/02 20:35:53;;;;;;;6.17;2.50;;;11.40;92.70;;;;;;6085158;23;20463;-78
2024/04/02 20:38:21;;;;;;;5.07;2.90;;;11.40;92.60;;;;;;6060471;23;20377;-79
2024/04/02 20:40:46;;;;;;;9.40;2.77;;;11.40;92.50;;;;;;6084898;23;20382;-75
2024/04/02 20:43:12;;;;;;;5.70;2.60;;;11.40;92.40;;;;;;6090546;23;20456;-76
2024/04/02 20:45:38;;;;;;;4.60;2.43;;;11.40;92.60;;;;;;6064045;23;20161;-78
2024/04/02 20:48:05;;;;;;;4.07;2.40;;;11.40;92.70;;;;;;6111260;23;20175;-76
2024/04/02 20:50:31;;;;;;;5.90;3.40;;;11.40;92.70;;;;;;6117533;23;20483;-77
2024/04/02 20:52:57;;;;;;;5.00;2.30;;;11.40;92.90;;;;;;6116427;23;20400;-75
2024/04/02 20:55:24;;;;;;;4.10;1.63;;;11.40;93.10;;;;;;6117032;23;20413;-78
2024/04/02 20:57:50;;;;;;;6.43;2.07;;;11.40;93.40;;;;;;6095677;23;20431;-76
2024/04/02 21:00:16;;;;;;;6.80;1.70;;;11.30;93.90;;;;;;6094940;23;20385;-76
2024/04/02 21:02:51;;;;;;;6.30;1.80;;;11.30;94.40;;;;;;6143814;23;20371;-80
2024/04/02 21:05:21;;;;;;;4.60;1.67;;;11.30;94.80;;;;;;6118953;23;20445;-75
2024/04/02 21:07:48;;;;;;;4.80;1.57;;;11.30;95.30;;;;;;6118226;23;20423;-75
2024/04/02 21:10:14;;;;;;;4.70;3.03;;;11.20;95.70;;;;;;6143836;23;20388;-77
2024/04/02 21:12:41;;;;;;;4.40;2.37;;;11.20;96.20;;;;;;6117461;23;20390;-75
2024/04/02 21:15:12;;;;;;;4.60;1.53;;;11.20;96.70;;;;;;6117164;23;20414;-77
2024/04/02 21:17:39;;;;;;;7.60;2.40;;;11.20;97.30;;;;;;6114893;23;20251;-76
2024/04/02 21:20:09;;;;;;;5.07;1.90;;;11.30;97.70;;;;;;6150777;23;20392;-76
2024/04/02 21:22:34;;;;;;;4.27;1.93;;;11.20;98.00;;;;;;6175574;23;20367;-77
2024/04/02 21:25:01;;;;;;;3.03;1.27;;;11.20;98.50;;;;;;6201797;23;20348;-77
2024/04/02 21:27:27;;;;;;;3.80;2.03;;;11.20;98.90;;;;;;6150771;23;20177;-76
2024/04/02 21:29:54;;;;;;;3.33;1.23;;;11.10;99.30;;;;;;6201719;23;20444;-76
2024/04/02 21:32:20;;;;;;;5.40;1.60;;;11.10;99.90;;;;;;6150633;23;20372;-76
2024/04/02 21:34:46;;;;;;;2.70;1.30;;;11.10;99.90;;;;;;6202752;23;20461;-76
2024/04/02 21:37:12;;;;;;;4.17;1.67;;;11.10;99.90;;;;;;6201309;23;20174;-75
2024/04/02 21:39:38;;;;;;;6.50;2.40;;;11.10;99.90;;;;;;6149840;23;20378;-76
2024/04/02 21:42:04;;;;;;;4.90;1.80;;;11.20;99.90;;;;;;6153270;23;20372;-75
2024/04/02 21:44:29;;;;;;;8.10;1.50;;;11.20;99.90;;;;;;6176679;23;20158;-77
2024/04/02 21:46:55;;;;;;;4.20;1.60;;;11.20;99.90;;;;;;6152950;23;20169;-79
2024/04/02 21:49:21;;;;;;;4.93;2.30;;;11.30;99.90;;;;;;6155889;23;20161;-77
2024/04/02 21:51:48;;;;;;;5.17;1.70;;;11.20;99.90;;;;;;6178529;23;20380;-77
2024/04/02 21:54:13;;;;;;;5.93;1.80;;;11.20;99.90;;;;;;6175940;23;20671;-76
2024/04/02 21:56:39;;;;;;;4.07;1.60;;;11.20;99.90;;;;;;6203921;23;20173;-77
2024/04/02 21:59:05;;;;;;;3.50;1.43;;;11.20;99.90;;;;;;6174440;23;20189;-76
2024/04/02 22:01:30;;;;;;;5.57;1.67;;;11.20;99.90;;;;;;6149863;23;20161;-75
2024/04/02 22:03:56;;;;;;;4.70;1.80;;;11.20;99.90;;;;;;6173995;23;20140;-76
2024/04/02 22:06:22;;;;;;;6.10;1.90;;;11.30;99.90;;;;;;6174966;23;20415;-75
2024/04/02 22:08:47;;;;;;;6.10;1.90;;;11.30;99.90;;;;;;6197936;23;20189;-75
2024/04/02 22:11:14;;;;;;;4.90;1.93;;;11.20;99.90;;;;;;6174461;23;20140;-77
2024/04/02 22:13:45;;;;;;;6.43;1.70;;;11.10;99.90;;;;;;6201495;23;22083;-74
2024/04/02 22:16:10;;;;;;;2.70;1.20;;;10.90;99.90;;;;;;6203508;23;20461;-75
2024/04/02 22:18:36;;;;;;;3.30;1.43;;;10.80;99.90;;;;;;6203892;23;20411;-74
2024/04/02 22:21:07;;;;;;;2.80;1.20;;;10.80;99.90;;;;;;6202650;23;20540;-77
2024/04/02 22:23:36;;;;;;;2.27;1.10;;;10.70;99.90;;;;;;6204061;23;20162;-77
2024/04/02 22:26:03;;;;;;;4.10;1.00;;;10.70;99.90;;;;;;6177251;23;20648;-76
2024/04/02 22:28:29;;;;;;;2.40;1.17;;;10.70;99.90;;;;;;6203136;23;20137;-76
2024/04/02 22:30:55;;;;;;;5.60;1.47;;;10.70;99.90;;;;;;6175330;23;20397;-76
2024/04/02 22:33:21;;;;;;;1.53;0.90;;;10.70;99.90;;;;;;6177557;23;20153;-76
2024/04/02 22:35:47;;;;;;;2.10;1.17;;;10.70;99.90;;;;;;6201948;23;20439;-76
2024/04/02 22:38:13;;;;;;;1.30;0.80;;;10.70;99.90;;;;;;6175378;23;20358;-76
2024/04/02 22:40:39;;;;;;;2.53;1.23;;;10.70;99.90;;;;;;6175671;23;20155;-76
2024/04/02 22:43:05;;;;;;;1.90;1.07;;;10.70;99.90;;;;;;6177313;23;20381;-76
2024/04/02 22:45:30;;;;;;;1.90;1.10;;;10.80;99.90;;;;;;6201026;23;20137;-76
2024/04/02 22:47:57;;;;;;;2.13;1.07;;;10.80;99.90;;;;;;6177841;23;20170;-77
2024/04/02 22:50:23;;;;;;;1.83;1.00;;;10.80;99.90;;;;;;6174988;23;20202;-74
2024/04/02 22:52:49;;;;;;;2.27;1.10;;;10.90;99.90;;;;;;6200228;23;20822;-75